Huron Regional Airport
KHON : now visible

Airfield :











YOU CAN JOIN US ON...

 
LOGIN :

Register | Disclaimer

   EN    FR    IT 

 









Legend :    VFR   Marginal VFR   IFR   Intensive IFR   Very Intensive IFR
Visi :
Ceiling :
>= 8 km
>= 3000ft
5 to 8 km
1000 to 3000 ft
1500m to 5 km
500 to 1000 ft
800 to 1500m
200 to 500 ft
< 800m
< 200 ft
Symbols :   Thunderstorms  Fog  Heavy snow  Heavy precipitations  Wind > 20 kt






- Airport Elevation : 1289 ft
- IATA code : HON


KHON - Huron Regional

CURRENT METAR :
  • 050655Z AUTO 14005KT 10SM SCT036 BKN045 16/16 A2999 RMK AO2 SLP150 T01610156

EXPIRED METARs :
  • 050555Z AUTO 12006KT 10SM SCT037 17/16 A3000 RMK AO2 SLP155 60028 T01670156 10183 20161 402440111 58004
  • 050455Z AUTO 17008KT 10SM CLR 17/16 A3001 RMK AO2 SLP156 T01670161

TAF KHON
Valid from the 05 at 06:00 until the 06 at 06:00 UTC


050546Z 0506/0606 15009KT P6SM BKN080
FM050900 16008KT P6SM SCT050
FM051600 21006KT P6SM FEW030
FM051900 27008KT P6SM FEW080
FM052300 35007KT P6SM FEW150
KZMP FIR / North America



MET'MAP, your aeronautical weather chart ! - Copyright ORBIFLY December 2007 - Disclaimer

ORBIFLY MET'MAP TEAM :

Programming & Development : Alexandra Zaïnal
Concept & original design : Baudouin d'Aumeries
Assistance for programming : Marc-Olivier Méhu
Technical & hardware support : Manuel Goepfert

Contact : metmap@orbifly.com




SOURCES & CREDITS :

   NOAA       Earth
Advisory